Latest Coastal Weather Observations for Hogan Island

IDT60701

Issued at 1:03 pm EDT Friday 24 March 2017 (issued every 10 minutes, with the page automatically refreshed every 10 minutes)

About coastal observations | Map of coastal stations | Coastal observations for TAS | Marine services | Other Formats
Station Details ID: 200838 Name: HOGAN ISLAND Lat: -39.22 Lon: 146.98 Height: 116.0 m
Data from the previous 72 hours. | See also: Recent months at Hogan Island
Date/Time
EDT
Temp
°C
Wind Pressure Rain since
9am
mm
Weather Cloud Vis
km
Sea
Height
m
Swell
Dir  Spd
kts
Gust
kts
hPa Trend Height
m
Period
s
Dir
24/01:00pm 19.5 E 22 26 1021.7 - 0.0 - - - - - - -
24/12:30pm 19.3 E 23 26 1022.2 - 0.0 - - - - - - -
24/12:00pm 19.2 E 22 26 1022.3 - 0.0 - - - - - - -
24/11:30am 18.9 E 21 24 1022.9 - 0.0 - - - - - - -
24/11:00am 18.5 E 22 25 1023.1 - 0.0 - - - - - - -
24/10:30am 18.4 E 22 26 1023.0 - 0.0 - - - - - - -
24/10:00am 17.6 E 21 24 1022.9 - 0.0 - - - - - - -
24/09:30am 17.4 E 23 26 1022.6 - 0.0 - - - - - - -
24/09:00am 16.8 E 23 26 1022.2 - 0.2 - - - - - - -
24/08:30am 16.5 E 23 26 1022.2 - 0.2 - - - - - - -
24/08:00am 15.9 E 23 27 1021.9 - 0.2 - - - - - - -
24/07:30am 15.4 E 25 28 1021.3 - 0.2 - - - - - - -
24/07:00am 15.2 E 25 28 1021.4 - 0.2 - - - - - - -
24/06:30am 15.3 E 23 27 1021.3 - 0.2 - - - - - - -
24/06:00am 15.3 E 22 26 1021.0 - 0.2 - - - - - - -
24/05:30am 15.2 E 19 22 1021.5 - 0.2 - - - - - - -
24/05:00am 15.4 E 17 20 1022.0 - 0.2 - - - - - - -
24/04:30am 15.8 E 15 18 1022.4 - 0.2 - - - - - - -
24/04:00am 15.5 E 18 21 1022.4 - 0.2 - - - - - - -
24/03:30am 15.6 E 19 22 1021.9 - 0.2 - - - - - - -
24/03:00am 15.4 E 20 23 1021.8 - 0.2 - - - - - - -
24/02:30am 15.5 E 23 26 1021.9 - 0.2 - - - - - - -
24/02:00am 15.4 E 23 25 1021.9 - 0.2 - - - - - - -
24/01:30am 15.3 E 19 22 1022.7 - 0.2 - - - - - - -
24/01:00am 15.3 ESE 21 23 1022.8 - 0.2 - - - - - - -
24/12:30am 15.2 ESE 22 27 1022.8 - 0.2 - - - - - - -
24/12:00am 15.3 ESE 22 25 1022.8 - 0.2 - - - - - - -
 
Date/Time
EDT
Temp
°C
Wind Pressure Rain since
9am
mm
Weather Cloud Vis
km
Sea
Height
m
Swell
Dir  Spd
kts
Gust
kts
hPa Trend Height
m
Period
s
Dir
23/11:30pm 15.4 ESE 20 22 1023.5 - 0.2 - - - - - - -
23/11:00pm 15.5 ESE 22 25 1023.5 - 0.2 - - - - - - -
23/10:30pm 15.5 ESE 21 24 1023.7 - 0.2 - - - - - - -
23/10:00pm 15.6 ESE 20 24 1023.6 - 0.2 - - - - - - -
23/09:30pm 15.5 ESE 21 25 1023.2 - 0.2 - - - - - - -
23/09:00pm 15.7 ESE 19 22 1022.9 - 0.2 - - - - - - -
23/08:30pm 15.6 ESE 20 22 1022.7 - 0.2 - - - - - - -
23/08:00pm 15.8 ESE 19 23 1022.6 - 0.2 - - - - - - -
23/07:30pm 15.9 E 20 23 1022.5 - 0.2 - - - - - - -
23/07:00pm 16.1 E 21 24 1022.4 - 0.2 - - - - - - -
23/06:30pm 16.5 E 21 25 1022.1 - 0.2 - - - - - - -
23/06:00pm 17.0 E 22 25 1021.9 - 0.2 - - - - - - -
23/05:30pm 17.7 E 22 25 1022.0 - 0.2 - - - - - - -
23/05:00pm 18.2 E 22 25 1022.0 - 0.2 - - - - - - -
23/04:30pm 18.5 ESE 22 25 1022.0 - 0.2 - - - - - - -
23/04:00pm 18.4 ESE 22 25 1022.1 - 0.2 - - - - - - -
23/03:30pm 19.6 ESE 21 25 1022.0 - 0.2 - - - - - - -
23/03:00pm 19.6 ESE 19 23 1022.0 - 0.2 - - - - - - -
23/02:30pm 19.9 ESE 19 23 1022.4 - 0.2 - - - - - - -
23/02:00pm 19.7 ESE 19 22 1022.7 - 0.2 - - - - - - -
23/01:30pm 19.4 ESE 21 24 1022.8 - 0.2 - - - - - - -
23/01:00pm 19.7 ESE 21 24 1022.8 - 0.2 - - - - - - -
23/12:30pm 19.9 ESE 19 23 1023.2 - 0.2 - - - - - - -
23/12:00pm 19.4 ESE 19 22 1023.2 - 0.2 - - - - - - -
23/11:30am 18.5 ESE 21 24 1023.4 - 0.0 - - - - - - -
23/11:00am 18.6 ESE 21 25 1023.4 - 0.0 - - - - - - -
23/10:30am 18.0 ESE 21 24 1023.4 - 0.0 - - - - - - -
23/10:00am 17.6 ESE 20 23 1023.4 - 0.0 - - - - - - -
23/09:30am 17.4 ESE 18 22 1023.5 - 0.0 - - - - - - -
23/09:00am 17.4 ESE 18 21 1023.2 - 0.2 - - - - - - -
23/08:30am 16.5 ESE 19 21 1023.0 - 0.2 - - - - - - -
23/08:00am 15.9 ESE 20 23 1022.8 - 0.2 - - - - - - -
23/07:30am 15.2 ESE 23 26 1022.5 - 0.2 - - - - - - -
23/07:00am 15.2 ESE 22 26 1022.4 - 0.2 - - - - - - -
23/06:30am 15.1 ESE 22 26 1022.1 - 0.2 - - - - - - -
23/06:00am 15.3 ESE 23 27 1021.8 - 0.2 - - - - - - -
23/05:30am 15.3 ESE 23 28 1021.9 - 0.2 - - - - - - -
23/05:00am 15.4 ESE 24 28 1021.7 - 0.2 - - - - - - -
23/04:30am 15.3 ESE 22 26 1021.7 - 0.2 - - - - - - -
23/04:00am 15.4 ESE 24 29 1021.7 - 0.2 - - - - - - -
23/03:30am 15.5 ESE 24 29 1021.6 - 0.2 - - - - - - -
23/03:00am 15.5 ESE 23 27 1021.6 - 0.2 - - - - - - -
23/02:30am 15.6 ESE 26 31 1021.8 - 0.2 - - - - - - -
23/02:00am 15.5 ESE 25 29 1021.9 - 0.2 - - - - - - -
23/01:30am 15.4 ESE 23 28 1022.0 - 0.2 - - - - - - -
23/01:00am 15.4 ESE 24 28 1022.2 - 0.2 - - - - - - -
23/12:30am 15.2 ESE 25 31 1022.1 - 0.2 - - - - - - -
23/12:00am 15.2 ESE 25 30 1022.0 - 0.2 - - - - - - -
 
Date/Time
EDT
Temp
°C
Wind Pressure Rain since
9am
mm
Weather Cloud Vis
km
Sea
Height
m
Swell
Dir  Spd
kts
Gust
kts
hPa Trend Height
m
Period
s
Dir
22/11:30pm 15.1 ESE 24 29 1022.1 - 0.2 - - - - - - -
22/11:00pm 15.2 ESE 25 29 1022.1 - 0.2 - - - - - - -
22/10:30pm 15.3 ESE 26 31 1022.1 - 0.2 - - - - - - -
22/10:00pm 15.3 ESE 25 29 1022.2 - 0.2 - - - - - - -
22/09:30pm 15.0 ESE 22 27 1021.8 - 0.2 - - - - - - -
22/09:00pm 15.3 ESE 25 28 1020.9 - 0.2 - - - - - - -
22/08:30pm 15.4 ESE 26 31 1020.7 - 0.2 - - - - - - -
22/08:00pm 15.7 ESE 24 28 1020.5 - 0.2 - - - - - - -
22/07:30pm 15.9 ESE 26 29 1020.3 - 0.2 - - - - - - -
22/07:00pm 16.2 ESE 25 30 1020.1 - 0.2 - - - - - - -
22/06:30pm 16.6 ESE 22 26 1019.6 - 0.2 - - - - - - -
22/06:00pm 16.3 ESE 22 28 1019.5 - 0.2 - - - - - - -
22/05:30pm 16.4 ESE 19 21 1019.6 - 0.2 - - - - - - -
22/05:00pm 15.3 SE 25 30 1019.0 - 0.2 - - - - - - -
22/04:37pm 15.6 ESE 33 36 1018.7 - 0.2 - - - - - - -
22/04:33pm 16.0 SE 21 31 1018.8 - 0.2 - - - - - - -
22/04:30pm 16.9 SE 20 24 1018.9 - 0.2 - - - - - - -
22/04:00pm 16.5 ESE 24 31 1018.6 - 0.2 - - - - - - -
22/03:54pm 17.8 ESE 18 30 1018.7 - 0.2 - - - - - - -
22/03:30pm 19.2 ESE 19 22 1018.6 - 0.2 - - - - - - -
22/03:00pm 19.4 ESE 19 23 1018.3 - 0.2 - - - - - - -
22/02:30pm 19.0 SE 18 21 1018.5 - 0.2 - - - - - - -
22/02:00pm 18.8 SE 22 26 1018.4 - 0.2 - - - - - - -
22/01:30pm 18.1 ESE 20 24 1018.4 - 0.2 - - - - - - -
22/01:00pm 18.4 SE 20 23 1018.3 - 0.2 - - - - - - -
22/12:30pm 17.9 SE 21 25 1018.3 - 0.2 - - - - - - -
22/12:00pm 17.4 SE 21 25 1018.2 - 0.2 - - - - - - -
22/11:30am 17.2 SE 23 27 1018.2 - 0.2 - - - - - - -
22/11:00am 16.1 ESE 27 32 1017.7 - 0.2 - - - - - - -
22/10:30am 16.2 ESE 26 31 1017.4 - 0.2 - - - - - - -
22/10:00am 16.0 ESE 24 28 1017.2 - 0.2 - - - - - - -
22/09:30am 15.7 SE 26 31 1016.7 - 0.2 - - - - - - -
22/09:00am 16.0 SE 28 33 1016.1 - 26.2 - - - - - - -
22/08:30am 16.1 SE 27 31 1015.7 - 26.2 - - - - - - -
22/08:00am 15.8 SE 25 29 1015.6 - 26.0 - - - - - - -
22/07:30am 15.5 SE 28 32 1014.9 - 26.0 - - - - - - -
22/07:00am 15.2 SE 26 31 1014.7 - 25.8 - - - - - - -
22/06:30am 15.3 SE 25 29 1014.4 - 25.2 - - - - - - -
22/06:00am 15.6 SE 26 30 1013.6 - 24.8 - - - - - - -
22/05:30am 15.8 SE 25 29 1013.5 - 23.6 - - - - - - -
22/05:00am 15.8 SE 26 31 1013.2 - 21.2 - - - - - - -
22/04:30am 15.8 SSE 23 29 1013.4 - 18.8 - - - - - - -
22/04:00am 16.4 SE 17 23 1013.0 - 12.8 - - - - - - -
22/03:30am 16.3 SE 28 32 1011.9 - 8.0 - - - - - - -
22/03:00am 16.2 ESE 33 38 1011.5 - 4.8 - - - - - - -
22/02:30am 16.4 ESE 33 38 1011.6 - 2.2 - - - - - - -
22/02:15am 16.7 ESE 30 35 1011.8 - 2.2 - - - - - - -
22/02:00am 17.1 SE 22 25 1012.1 - 1.8 - - - - - - -
22/01:30am 17.0 SE 24 29 1012.1 - 0.8 - - - - - - -
22/01:00am 17.1 SE 26 30 1012.1 - 0.6 - - - - - - -
22/12:30am 17.1 SE 23 28 1012.8 - 0.6 - - - - - - -
22/12:00am 17.1 SE 27 32 1012.5 - 0.4 - - - - - - -
 
Date/Time
EDT
Temp
°C
Wind Pressure Rain since
9am
mm
Weather Cloud Vis
km
Sea
Height
m
Swell
Dir  Spd
kts
Gust
kts
hPa Trend Height
m
Period
s
Dir
21/11:30pm 17.0 SE 27 31 1012.9 - 0.0 - - - - - - -
21/11:00pm 17.0 ESE 30 35 1012.7 - 0.0 - - - - - - -
21/10:30pm 17.0 ESE 29 34 1013.1 - 0.0 - - - - - - -
21/10:00pm 17.0 ESE 28 32 1013.2 - 0.0 - - - - - - -
21/09:30pm 17.0 ESE 28 33 1013.3 - 0.0 - - - - - - -
21/09:00pm 17.1 ESE 30 34 1012.7 - 0.0 - - - - - - -
21/08:30pm 17.4 ESE 27 31 1012.8 - 0.0 - - - - - - -
21/08:00pm 17.4 ESE 29 33 1012.6 - 0.0 - - - - - - -
21/07:30pm 17.5 ESE 28 33 1012.6 - 0.0 - - - - - - -
21/07:00pm 17.9 ESE 27 32 1012.4 - 0.0 - - - - - - -
21/06:30pm 18.2 ESE 26 31 1012.3 - 0.0 - - - - - - -
21/06:00pm 18.2 ESE 26 32 1012.1 - 0.0 - - - - - - -
21/05:30pm 18.4 ESE 26 30 1012.3 - 0.0 - - - - - - -
21/05:00pm 18.3 ESE 24 28 1012.7 - 0.0 - - - - - - -
21/04:30pm 18.6 E 25 29 1012.9 - 0.0 - - - - - - -
21/04:00pm 18.6 E 25 29 1012.9 - 0.0 - - - - - - -
21/03:30pm 18.4 E 23 26 1013.3 - 0.0 - - - - - - -
21/03:00pm 18.7 E 25 29 1012.9 - 0.0 - - - - - - -
21/02:30pm 18.4 ESE 22 26 1013.4 - 0.0 - - - - - - -
21/02:00pm 18.7 E 21 25 1014.0 - 0.0 - - - - - - -
21/01:30pm 18.6 ESE 19 23 1014.5 - 0.0 - - - - - - -

Other Formats:

Comma delimited format used in spreadsheet applications
http://www.bom.gov.au/fwo/IDT60701/IDT60701.94949.axf

JavaScript Object Notation format (JSON) in row-major order
http://www.bom.gov.au/fwo/IDT60701/IDT60701.94949.json